Terminal Aerodrome Forecast
Issued by NWS

Home | Current Version | Previous Version | Text Only | Print | Product List | Glossary On
Versions: 1 2 3 4 5 6 7 8 9 10 11 12 13 14 15 16 17 18 19 20 21 22 23 24 25 26 27 28 29 30 31 32 33 34 35 36 37 38 39 40 41 42
694
FTAK31 PAFA 261140
TAFAOR
TAF
PAOR 261140Z 2612/2712 00000KT P6SM BCFG SCT090 SCT180
     FM261900 29005KT P6SM VCTS BKN070CB BKN150
     FM270600 VRB04KT P6SM SCT070 BKN180=

USA.gov is the U.S. government's official web portal to all federal, state and local government web resources and services.